Time;durP1;ratioP1;P1;durP2;ratioP2;P2;SDS_P1;SDS_P2;PMS_P1;PMS_P2;Temp;Humidity;BMP_temperature;BMP_pressure;BME280_temperature;BME280_humidity;BME280_pressure;Samples;Min_cycle;Max_cycle;Signal;HPM_P1;HPM_P2
2021/05/21 00:00:58;;;;;;;10.93;6.13;;;23.40;49.80;;;;;;5049669;28;20500;-84
2021/05/21 00:03:24;;;;;;;9.70;6.80;;;23.40;49.90;;;;;;5049053;28;20395;-84
2021/05/21 00:09:13;;;;;;;7.30;6.53;;;23.40;49.80;;;;;;5049350;28;20405;-84
2021/05/21 00:11:39;;;;;;;8.73;6.90;;;23.40;49.90;;;;;;5031679;28;20494;-84
2021/05/21 00:14:06;;;;;;;11.10;5.57;;;23.40;50.00;;;;;;5049843;28;20411;-84
2021/05/21 00:16:32;;;;;;;8.40;5.73;;;23.40;49.90;;;;;;5031704;28;20191;-84
2021/05/21 00:18:58;;;;;;;6.87;6.07;;;23.40;50.50;;;;;;5056727;28;20418;-84
2021/05/21 00:21:25;;;;;;;8.53;5.20;;;23.40;49.90;;;;;;5030608;28;20458;-84
2021/05/21 00:23:51;;;;;;;7.97;5.17;;;23.40;49.80;;;;;;5031701;28;20414;-84
2021/05/21 00:26:17;;;;;;;9.43;5.47;;;23.30;49.80;;;;;;5050118;28;20413;-83
2021/05/21 00:32:05;;;;;;;7.53;5.27;;;23.30;49.70;;;;;;5049904;28;20235;-84
2021/05/21 00:34:31;;;;;;;6.33;4.90;;;23.30;49.90;;;;;;5035254;28;20445;-83
2021/05/21 00:36:57;;;;;;;9.23;5.40;;;23.30;49.80;;;;;;5054548;28;20501;-83
2021/05/21 00:39:22;;;;;;;6.67;4.50;;;23.30;49.80;;;;;;5054920;28;20217;-83
2021/05/21 00:41:51;;;;;;;6.20;5.23;;;23.30;49.70;;;;;;5035591;28;20271;-83
2021/05/21 00:44:18;;;;;;;5.60;4.27;;;23.30;49.80;;;;;;5051436;28;20175;-83
2021/05/21 00:46:44;;;;;;;8.37;4.53;;;23.30;49.80;;;;;;5027413;28;20434;-84
2021/05/21 00:49:10;;;;;;;7.43;5.67;;;23.30;49.70;;;;;;5029782;28;20419;-84
2021/05/21 00:51:42;;;;;;;6.40;4.50;;;23.30;49.70;;;;;;5012372;28;20180;-84
2021/05/21 00:54:07;;;;;;;5.10;4.27;;;23.30;49.60;;;;;;5028042;28;20219;-83
2021/05/21 00:56:33;;;;;;;6.63;4.63;;;23.20;49.60;;;;;;5029270;28;20439;-83
2021/05/21 00:58:59;;;;;;;5.93;4.73;;;23.50;49.80;;;;;;5029428;28;20187;-83
2021/05/21 01:01:30;;;;;;;4.67;4.20;;;23.20;49.60;;;;;;5027423;28;20211;-83
2021/05/21 01:03:56;;;;;;;6.13;4.43;;;23.20;49.60;;;;;;5027985;28;20458;-83
2021/05/21 01:06:28;;;;;;;5.47;4.00;;;23.20;49.70;;;;;;5031735;28;20411;-82
2021/05/21 01:09:07;;;;;;;5.60;4.43;;;23.30;49.80;;;;;;5034005;28;20399;-84
2021/05/21 01:11:57;;;;;;;6.43;4.50;;;23.20;49.70;;;;;;5034149;28;20411;-84
2021/05/21 01:14:51;;;;;;;6.03;4.70;;;23.20;49.70;;;;;;5034607;28;20419;-84
2021/05/21 01:25:13;;;;;;;;;;;;;;;;;;;;;
2021/05/21 01:38:33;;;;;;;5.87;3.93;;;23.20;49.90;;;;;;4862809;29;20417;-82
2021/05/21 01:57:59;;;;;;;3.97;3.40;;;23.10;49.90;;;;;;4830968;29;20435;-82
2021/05/21 02:00:26;;;;;;;4.70;4.00;;;23.10;50.00;;;;;;4840412;29;20891;-82
2021/05/21 02:02:52;;;;;;;5.57;3.43;;;23.10;50.00;;;;;;4840124;29;20428;-83
2021/05/21 02:05:18;;;;;;;5.03;3.50;;;23.10;49.90;;;;;;4899255;29;20488;-81
2021/05/21 02:07:46;;;;;;;4.50;3.57;;;23.10;49.80;;;;;;4883008;29;20431;-82
2021/05/21 02:10:13;;;;;;;4.70;3.80;;;23.10;49.80;;;;;;4930686;29;20467;-83
2021/05/21 02:12:44;;;;;;;6.27;4.20;;;23.10;49.80;;;;;;4952742;29;20430;-83
2021/05/21 02:15:11;;;;;;;4.87;3.67;;;23.10;49.80;;;;;;4936824;29;20959;-83
2021/05/21 02:17:37;;;;;;;5.23;4.13;;;23.10;49.80;;;;;;4937188;29;20466;-82
2021/05/21 02:20:08;;;;;;;5.50;3.93;;;23.10;50.00;;;;;;4956249;28;20459;-82
2021/05/21 02:22:37;;;;;;;5.27;3.40;;;23.10;49.80;;;;;;5030807;28;20431;-82
2021/05/21 02:25:03;;;;;;;3.97;2.93;;;23.10;49.80;;;;;;5031859;28;20408;-82
2021/05/21 02:27:32;;;;;;;4.33;3.67;;;23.10;49.90;;;;;;5034626;28;20411;-83
2021/05/21 02:30:00;;;;;;;4.77;3.50;;;23.10;49.90;;;;;;5032028;28;20450;-83
2021/05/21 02:32:29;;;;;;;5.00;3.87;;;23.10;49.90;;;;;;5030076;28;20419;-83
2021/05/21 02:34:55;;;;;;;3.83;3.03;;;23.10;50.10;;;;;;5032361;28;20415;-83
2021/05/21 02:37:22;;;;;;;4.77;2.83;;;23.00;50.00;;;;;;5032421;28;20511;-83
2021/05/21 02:39:52;;;;;;;5.13;2.60;;;23.10;49.90;;;;;;5032298;28;20194;-84
2021/05/21 02:42:18;;;;;;;4.70;3.90;;;23.10;49.90;;;;;;5032613;28;20477;-83
2021/05/21 02:44:43;;;;;;;4.30;3.60;;;23.10;50.10;;;;;;5014278;28;20431;-84
2021/05/21 02:47:09;;;;;;;3.93;3.50;;;23.10;50.20;;;;;;5031947;28;20179;-84
2021/05/21 02:49:35;;;;;;;4.70;3.77;;;23.10;50.30;;;;;;5030427;28;20637;-83
2021/05/21 02:52:03;;;;;;;6.20;3.17;;;23.10;50.20;;;;;;5031072;28;20692;-85
2021/05/21 02:54:29;;;;;;;4.70;3.30;;;23.10;50.10;;;;;;5032442;28;20176;-85
2021/05/21 02:56:57;;;;;;;4.10;3.60;;;23.10;50.30;;;;;;5031155;28;20426;-86
2021/05/21 02:59:23;;;;;;;3.83;3.23;;;23.10;50.50;;;;;;5031912;28;20435;-85
2021/05/21 03:01:49;;;;;;;4.10;2.73;;;23.10;50.30;;;;;;5031996;28;20458;-85
2021/05/21 03:04:16;;;;;;;4.43;4.00;;;23.10;50.50;;;;;;5031539;28;20713;-85
2021/05/21 03:06:42;;;;;;;3.57;2.67;;;23.00;50.40;;;;;;5031136;28;20431;-85
2021/05/21 03:09:13;;;;;;;5.80;3.20;;;23.00;50.50;;;;;;5031130;28;20415;-85
2021/05/21 03:11:39;;;;;;;4.43;2.90;;;23.00;50.10;;;;;;5032035;28;20252;-85
2021/05/21 03:14:05;;;;;;;4.37;3.07;;;23.00;50.20;;;;;;5031472;28;20482;-85
2021/05/21 03:16:31;;;;;;;4.37;3.10;;;22.90;50.30;;;;;;5032074;28;20180;-85
2021/05/21 03:18:57;;;;;;;3.97;3.30;;;23.00;50.40;;;;;;5031937;28;20499;-85
2021/05/21 03:21:25;;;;;;;3.90;3.00;;;23.00;50.10;;;;;;5014564;28;20204;-85
2021/05/21 03:23:51;;;;;;;3.70;3.10;;;23.00;50.10;;;;;;5033286;28;20411;-85
2021/05/21 03:26:17;;;;;;;3.27;2.97;;;23.00;50.20;;;;;;5031191;28;20454;-85
2021/05/21 03:28:43;;;;;;;4.73;3.13;;;23.00;50.00;;;;;;5051407;28;20273;-85
2021/05/21 03:31:14;;;;;;;2.83;2.33;;;23.00;50.50;;;;;;5055851;28;20456;-85
2021/05/21 03:33:42;;;;;;;3.27;2.70;;;23.00;50.20;;;;;;5054966;28;20449;-85
2021/05/21 03:36:10;;;;;;;4.07;2.60;;;23.00;50.50;;;;;;5072402;28;20413;-85
2021/05/21 03:38:36;;;;;;;3.80;2.80;;;23.00;50.60;;;;;;5073290;28;20421;-85
2021/05/21 03:41:02;;;;;;;4.17;3.33;;;23.00;50.00;;;;;;5052785;28;20556;-85
2021/05/21 03:43:28;;;;;;;4.10;2.93;;;23.00;50.20;;;;;;5071307;28;20414;-85
2021/05/21 03:45:54;;;;;;;3.37;2.80;;;23.00;50.10;;;;;;5053153;28;20443;-85
2021/05/21 03:48:22;;;;;;;4.90;2.63;;;23.00;50.40;;;;;;5051977;28;20481;-85
2021/05/21 03:50:48;;;;;;;4.73;2.73;;;23.00;50.40;;;;;;5070555;28;20151;-85
2021/05/21 03:53:26;;;;;;;3.83;2.40;;;23.00;50.20;;;;;;5071081;28;20433;-85
2021/05/21 03:55:55;;;;;;;3.40;2.50;;;23.00;50.30;;;;;;5053674;28;20419;-85
2021/05/21 03:58:24;;;;;;;2.63;2.30;;;23.00;50.50;;;;;;5053518;28;20441;-85
2021/05/21 04:01:15;;;;;;;3.43;2.60;;;22.90;50.30;;;;;;5070496;28;20460;-84
2021/05/21 04:03:46;;;;;;;4.80;3.00;;;23.00;50.30;;;;;;5070666;28;20473;-86
2021/05/21 04:06:15;;;;;;;2.90;2.60;;;23.00;50.20;;;;;;5053596;28;20441;-85
2021/05/21 04:08:47;;;;;;;2.30;2.10;;;22.90;50.30;;;;;;5053337;28;20409;-85
2021/05/21 04:11:21;;;;;;;3.37;2.40;;;23.00;50.30;;;;;;5036784;28;20828;-85
2021/05/21 04:13:47;;;;;;;3.20;2.70;;;23.00;50.30;;;;;;5052594;28;20428;-85
2021/05/21 04:16:13;;;;;;;3.40;2.70;;;22.90;50.40;;;;;;5052737;28;20489;-85
2021/05/21 04:18:43;;;;;;;3.33;2.57;;;23.00;50.50;;;;;;5053166;28;20449;-85
2021/05/21 04:21:31;;;;;;;3.70;2.77;;;22.90;50.30;;;;;;5053000;28;20453;-85
2021/05/21 04:24:19;;;;;;;2.43;2.23;;;23.00;50.30;;;;;;5070726;28;20390;-85
2021/05/21 04:27:06;;;;;;;3.80;2.70;;;23.00;50.20;;;;;;5053080;28;20413;-86
2021/05/21 04:29:35;;;;;;;3.40;2.23;;;22.90;50.10;;;;;;5065276;28;20436;-85
2021/05/21 04:32:05;;;;;;;2.70;2.50;;;22.90;50.70;;;;;;5035863;28;20471;-85
2021/05/21 04:34:31;;;;;;;2.73;2.53;;;22.90;50.10;;;;;;5036390;28;20391;-85
2021/05/21 04:36:58;;;;;;;2.80;2.60;;;22.90;50.20;;;;;;5037035;28;20419;-84
2021/05/21 04:42:55;;;;;;;2.97;2.23;;;23.00;49.90;;;;;;5048473;28;20409;-83
2021/05/21 04:45:21;;;;;;;3.03;2.63;;;23.00;50.10;;;;;;5026349;28;20422;-83
2021/05/21 04:47:46;;;;;;;3.83;2.57;;;23.00;50.30;;;;;;5032675;28;20421;-83
2021/05/21 04:50:23;;;;;;;3.10;2.30;;;23.00;50.50;;;;;;5031363;28;20418;-83
2021/05/21 04:52:52;;;;;;;2.57;2.37;;;23.10;49.90;;;;;;5033007;28;20171;-83
2021/05/21 04:55:17;;;;;;;3.60;2.27;;;23.10;50.20;;;;;;5049379;28;20411;-82
2021/05/21 04:57:49;;;;;;;5.50;2.93;;;23.10;50.30;;;;;;5052397;28;20452;-82
2021/05/21 05:00:16;;;;;;;2.50;2.03;;;23.10;50.00;;;;;;5034658;28;20227;-82
2021/05/21 05:02:42;;;;;;;3.43;2.10;;;23.10;50.00;;;;;;5036741;28;20406;-84
2021/05/21 05:05:09;;;;;;;3.70;2.27;;;23.10;49.90;;;;;;5054157;28;20414;-83
2021/05/21 05:07:34;;;;;;;3.40;2.13;;;23.10;49.80;;;;;;5037299;28;20501;-82
2021/05/21 05:10:00;;;;;;;2.63;2.00;;;23.10;50.00;;;;;;5051232;28;20430;-82
2021/05/21 05:12:26;;;;;;;2.77;1.93;;;23.10;50.10;;;;;;5049777;28;20182;-81
2021/05/21 05:14:56;;;;;;;4.00;2.30;;;23.10;50.10;;;;;;5049395;28;20190;-82
2021/05/21 05:17:22;;;;;;;5.30;1.87;;;23.20;50.10;;;;;;5051275;28;20206;-82
2021/05/21 05:19:48;;;;;;;4.20;2.07;;;23.10;49.80;;;;;;5051882;28;20426;-85
2021/05/21 05:22:14;;;;;;;4.77;1.80;;;23.20;49.90;;;;;;5053488;28;20176;-84
2021/05/21 05:24:40;;;;;;;2.30;1.83;;;23.10;50.30;;;;;;5054500;28;20422;-84
2021/05/21 05:27:06;;;;;;;2.70;2.07;;;23.10;50.00;;;;;;5052307;28;20824;-84
2021/05/21 05:29:35;;;;;;;2.73;1.70;;;23.10;50.00;;;;;;5053792;28;20180;-84
2021/05/21 05:32:02;;;;;;;3.13;2.00;;;23.10;49.60;;;;;;5036202;28;20418;-84
2021/05/21 05:34:28;;;;;;;2.00;1.80;;;23.10;49.60;;;;;;5053961;28;20406;-84
2021/05/21 05:36:57;;;;;;;6.03;1.80;;;23.10;49.90;;;;;;5035781;28;20477;-83
2021/05/21 05:39:26;;;;;;;3.90;2.10;;;23.10;49.50;;;;;;5035532;28;20512;-84
2021/05/21 05:41:52;;;;;;;2.97;2.20;;;23.10;49.50;;;;;;5051955;28;20464;-84
2021/05/21 05:47:41;;;;;;;1.80;1.70;;;23.20;49.60;;;;;;5047916;28;20998;-85
2021/05/21 05:50:09;;;;;;;1.90;1.70;;;23.10;49.60;;;;;;5030489;28;20422;-85
2021/05/21 05:52:35;;;;;;;2.80;1.87;;;23.10;49.70;;;;;;5030613;28;20422;-86
2021/05/21 05:55:01;;;;;;;2.33;1.80;;;23.10;49.70;;;;;;5048415;28;20415;-83
2021/05/21 05:57:29;;;;;;;2.77;1.63;;;23.10;49.80;;;;;;5050916;28;20168;-84
2021/05/21 05:59:55;;;;;;;1.70;1.53;;;23.10;50.00;;;;;;5033949;28;20180;-85
2021/05/21 06:02:21;;;;;;;4.60;1.77;;;23.10;49.80;;;;;;5042181;28;20420;-85
2021/05/21 06:04:47;;;;;;;1.40;1.30;;;23.10;50.00;;;;;;5047212;28;20788;-85
2021/05/21 06:07:12;;;;;;;2.57;1.70;;;23.10;49.80;;;;;;5069542;28;20167;-84
2021/05/21 06:09:38;;;;;;;1.40;1.30;;;23.10;49.60;;;;;;5052283;28;20413;-83
2021/05/21 06:12:05;;;;;;;3.10;1.83;;;23.20;49.90;;;;;;5052094;28;20270;-83
2021/05/21 06:14:31;;;;;;;2.97;1.50;;;23.10;49.50;;;;;;5052302;28;20182;-83
2021/05/21 06:16:56;;;;;;;2.33;1.60;;;23.20;49.80;;;;;;5052480;28;20413;-83
2021/05/21 06:19:22;;;;;;;1.80;1.53;;;23.10;49.70;;;;;;5052015;28;20605;-83
2021/05/21 06:21:48;;;;;;;3.07;1.50;;;23.20;49.80;;;;;;5070069;28;20190;-83
2021/05/21 06:24:16;;;;;;;1.93;1.73;;;23.20;49.70;;;;;;5051971;28;20202;-83
2021/05/21 06:26:44;;;;;;;2.50;1.60;;;23.20;50.50;;;;;;5052027;28;20439;-86
2021/05/21 06:29:12;;;;;;;2.60;1.63;;;23.20;49.70;;;;;;5048837;28;20478;-85
2021/05/21 06:31:38;;;;;;;2.93;1.70;;;23.20;49.70;;;;;;5049354;28;20441;-85
2021/05/21 06:34:04;;;;;;;1.90;1.53;;;23.20;49.60;;;;;;5068119;28;20405;-86
2021/05/21 06:36:30;;;;;;;2.70;1.70;;;23.20;49.80;;;;;;5050929;28;20186;-86
2021/05/21 06:38:56;;;;;;;4.40;1.97;;;23.20;49.80;;;;;;5068215;28;20175;-86
2021/05/21 06:41:23;;;;;;;1.90;1.40;;;23.20;50.00;;;;;;5050705;28;20203;-86
2021/05/21 06:43:58;;;;;;;1.60;1.30;;;23.30;49.90;;;;;;5051545;28;20418;-82
2021/05/21 06:46:23;;;;;;;1.63;1.23;;;23.30;49.80;;;;;;5051538;28;20431;-82
2021/05/21 06:48:49;;;;;;;2.70;1.83;;;23.30;49.70;;;;;;5070823;28;20409;-82
2021/05/21 06:51:16;;;;;;;1.70;1.30;;;23.30;49.90;;;;;;5034443;28;20195;-85
2021/05/21 06:53:47;;;;;;;2.00;1.50;;;23.40;49.50;;;;;;5050800;28;20425;-86
2021/05/21 06:56:16;;;;;;;2.77;1.60;;;23.40;49.30;;;;;;5051386;28;20769;-85
2021/05/21 06:58:42;;;;;;;2.97;1.70;;;23.50;49.50;;;;;;5053647;28;20414;-84
2021/05/21 07:01:08;;;;;;;1.50;1.30;;;23.40;49.50;;;;;;5072070;28;20539;-85
2021/05/21 07:03:33;;;;;;;1.50;1.40;;;23.50;49.50;;;;;;5054680;28;20425;-85
2021/05/21 07:05:59;;;;;;;2.40;1.40;;;23.50;49.90;;;;;;5054972;28;20603;-84
2021/05/21 07:08:26;;;;;;;2.30;1.40;;;23.40;49.60;;;;;;5051015;28;20175;-86
2021/05/21 07:10:54;;;;;;;1.93;1.57;;;23.50;49.60;;;;;;5051333;28;20416;-84
2021/05/21 07:13:21;;;;;;;1.73;1.60;;;23.60;49.40;;;;;;5070055;28;20406;-84
2021/05/21 07:15:55;;;;;;;1.93;1.20;;;23.50;49.50;;;;;;5048475;28;20414;-84
2021/05/21 07:18:21;;;;;;;3.30;2.17;;;23.60;49.50;;;;;;5031494;28;20415;-84
2021/05/21 07:20:47;;;;;;;1.73;1.10;;;23.60;49.50;;;;;;5048889;28;20458;-85
2021/05/21 07:23:19;;;;;;;2.70;1.40;;;23.60;49.50;;;;;;5063842;28;20417;-84
2021/05/21 07:25:48;;;;;;;1.53;1.13;;;23.60;49.40;;;;;;5050545;28;20171;-85
2021/05/21 07:28:14;;;;;;;2.20;1.97;;;23.60;49.40;;;;;;5033608;28;20425;-86
2021/05/21 07:30:42;;;;;;;1.87;1.50;;;23.60;49.90;;;;;;5049777;28;20541;-86
2021/05/21 07:33:08;;;;;;;2.33;1.50;;;23.60;49.40;;;;;;5053626;28;20417;-82
2021/05/21 07:35:54;;;;;;;1.30;1.20;;;23.70;49.60;;;;;;5053520;28;20431;-82
2021/05/21 07:39:15;;;;;;;1.70;1.30;;;23.70;49.40;;;;;;5053377;28;20179;-82
2021/05/21 07:41:41;;;;;;;3.33;1.50;;;23.60;49.20;;;;;;4936008;29;20468;-83
2021/05/21 07:44:22;;;;;;;1.63;1.10;;;23.70;49.30;;;;;;4920858;29;20432;-83
2021/05/21 07:46:48;;;;;;;1.83;1.63;;;23.60;49.40;;;;;;4936757;29;20416;-83
2021/05/21 07:49:14;;;;;;;2.60;1.40;;;23.70;49.50;;;;;;4920087;29;20456;-83
2021/05/21 07:51:40;;;;;;;1.37;1.23;;;23.70;49.60;;;;;;4920830;29;20428;-83
2021/05/21 07:54:07;;;;;;;2.20;1.20;;;23.70;49.40;;;;;;4904079;29;20499;-83
2021/05/21 07:56:45;;;;;;;2.30;1.70;;;23.80;49.70;;;;;;4919178;29;20438;-83
2021/05/21 07:59:12;;;;;;;1.23;1.10;;;23.80;49.50;;;;;;4936075;29;20428;-84
2021/05/21 08:01:42;;;;;;;2.00;1.20;;;23.80;49.90;;;;;;4920205;29;20460;-83
2021/05/21 08:04:12;;;;;;;1.30;0.93;;;23.80;49.40;;;;;;4917849;29;20541;-83
2021/05/21 08:06:45;;;;;;;1.40;1.30;;;23.80;49.30;;;;;;4932454;29;20511;-83
2021/05/21 08:09:11;;;;;;;1.50;1.30;;;23.80;49.20;;;;;;4931108;29;20450;-82
2021/05/21 08:12:10;;;;;;;1.27;1.17;;;23.70;49.30;;;;;;4915342;29;20798;-83
2021/05/21 08:21:25;;;;;;;3.13;1.33;;;23.80;49.20;;;;;;5033531;28;20555;-82
2021/05/21 08:23:55;;;;;;;1.37;1.27;;;23.80;49.60;;;;;;5016084;28;20420;-83
2021/05/21 08:27:18;;;;;;;1.20;1.10;;;23.80;49.40;;;;;;5001632;28;20462;-84
2021/05/21 08:33:09;;;;;;;1.60;1.10;;;23.80;49.20;;;;;;5024853;28;20420;-86
2021/05/21 08:35:38;;;;;;;2.13;1.30;;;23.80;49.80;;;;;;5007594;28;20440;-86
2021/05/21 08:38:04;;;;;;;2.03;1.23;;;23.80;49.40;;;;;;4995307;28;20427;-83
2021/05/21 08:41:08;;;;;;;1.77;1.27;;;23.80;49.30;;;;;;5016293;28;20570;-83
2021/05/21 08:43:28;;;;;;;2.80;1.33;;;23.90;49.50;;;;;;5027648;28;20177;-83
2021/05/21 08:45:54;;;;;;;1.60;1.20;;;23.90;49.50;;;;;;5031609;28;20472;-83
2021/05/21 08:55:17;;;;;;;2.03;1.20;;;23.80;49.10;;;;;;5022094;28;20387;-85
2021/05/21 08:57:46;;;;;;;1.70;1.10;;;23.80;49.30;;;;;;5024107;28;20478;-85
2021/05/21 09:00:13;;;;;;;1.93;0.90;;;23.90;49.30;;;;;;5007620;28;20475;-85
2021/05/21 09:02:48;;;;;;;2.37;1.10;;;23.90;49.40;;;;;;5024072;28;20450;-86
2021/05/21 09:05:15;;;;;;;1.20;1.00;;;23.90;49.50;;;;;;5008803;28;20445;-86
2021/05/21 09:07:46;;;;;;;1.57;1.10;;;24.00;49.40;;;;;;5025126;28;20415;-86
2021/05/21 09:10:25;;;;;;;2.07;1.20;;;23.90;49.30;;;;;;5023795;28;20412;-85
2021/05/21 09:12:57;;;;;;;1.27;1.17;;;23.90;49.10;;;;;;5007190;28;20446;-85
2021/05/21 09:15:27;;;;;;;2.13;1.00;;;23.90;49.10;;;;;;5007667;28;20399;-86
2021/05/21 09:18:30;;;;;;;2.77;1.20;;;24.00;49.20;;;;;;5008056;28;20506;-86
2021/05/21 09:21:04;;;;;;;1.97;1.30;;;24.00;49.20;;;;;;5007883;28;20487;-87
2021/05/21 09:23:34;;;;;;;1.40;1.00;;;24.00;49.20;;;;;;5066077;28;20408;-86
2021/05/21 09:26:10;;;;;;;2.13;1.10;;;24.00;49.30;;;;;;5065260;28;20409;-86
2021/05/21 09:38:54;;;;;;;1.10;0.93;;;24.00;49.20;;;;;;4949919;29;20395;-83
2021/05/21 09:41:20;;;;;;;1.20;1.00;;;24.00;49.20;;;;;;4931798;29;20506;-84
2021/05/21 09:43:51;;;;;;;1.27;0.90;;;24.00;49.30;;;;;;4950516;29;20936;-84
2021/05/21 09:50:28;;;;;;;1.20;1.00;;;24.00;49.10;;;;;;4894322;29;20429;-84
2021/05/21 09:54:00;;;;;;;;;;;;;;;;;;;;;
2021/05/21 10:03:19;;;;;;;2.03;0.90;;;24.00;49.10;;;;;;4839094;29;20469;-84
2021/05/21 10:09:35;;;;;;;1.30;0.90;;;24.00;49.20;;;;;;4878582;29;20459;-84
2021/05/21 10:12:57;;;;;;;1.10;0.90;;;24.00;49.10;;;;;;4879415;29;20418;-83
2021/05/21 10:15:26;;;;;;;1.50;1.20;;;23.90;49.00;;;;;;4894520;29;20435;-83
2021/05/21 10:17:56;;;;;;;1.20;1.00;;;24.00;49.20;;;;;;4877893;29;20432;-84
2021/05/21 10:23:31;;;;;;;1.53;1.17;;;24.00;49.20;;;;;;4893338;29;20421;-80
2021/05/21 10:26:38;;;;;;;1.10;0.90;;;24.00;49.20;;;;;;4912430;29;20486;-82
2021/05/21 10:29:12;;;;;;;2.17;1.03;;;24.00;49.20;;;;;;4990891;28;20456;-82
2021/05/21 10:31:38;;;;;;;1.20;0.93;;;24.00;49.20;;;;;;4991349;28;20503;-82
2021/05/21 10:34:18;;;;;;;1.90;0.90;;;24.00;49.20;;;;;;5033097;28;20418;-82
2021/05/21 10:37:23;;;;;;;1.50;1.00;;;24.00;49.20;;;;;;5033828;28;20796;-83
2021/05/21 10:40:21;;;;;;;2.70;0.90;;;24.00;49.10;;;;;;5033448;28;20449;-82
2021/05/21 10:42:51;;;;;;;2.50;0.80;;;24.00;49.10;;;;;;5033959;28;20426;-83
2021/05/21 10:45:30;;;;;;;1.30;0.90;;;24.00;49.20;;;;;;5051549;28;20495;-83
2021/05/21 10:48:02;;;;;;;1.10;1.00;;;24.00;49.20;;;;;;5034078;28;20422;-82
2021/05/21 10:50:37;;;;;;;1.47;1.00;;;24.00;49.20;;;;;;5033346;28;20430;-82
2021/05/21 10:53:10;;;;;;;1.40;1.13;;;24.00;49.20;;;;;;5033070;28;20425;-83
2021/05/21 10:55:54;;;;;;;1.50;0.87;;;24.00;49.30;;;;;;5032123;28;20420;-81
2021/05/21 10:58:31;;;;;;;1.80;1.20;;;24.00;49.20;;;;;;5051796;28;20406;-82
2021/05/21 11:01:15;;;;;;;1.70;1.20;;;23.90;49.00;;;;;;5033047;28;20507;-86
2021/05/21 11:06:54;;;;;;;2.73;1.53;;;23.90;49.10;;;;;;5022888;28;20450;-86
2021/05/21 11:09:44;;;;;;;1.90;1.50;;;23.90;49.30;;;;;;5052117;28;20412;-85
2021/05/21 11:12:15;;;;;;;1.50;1.40;;;23.90;49.10;;;;;;5033292;28;20427;-85
2021/05/21 11:14:44;;;;;;;1.77;1.53;;;23.90;49.30;;;;;;5033000;28;20411;-86
2021/05/21 11:17:22;;;;;;;1.90;1.70;;;23.80;49.20;;;;;;5033348;28;20419;-83
2021/05/21 11:19:55;;;;;;;1.73;1.60;;;23.80;49.10;;;;;;5033871;28;20418;-82
2021/05/21 11:22:40;;;;;;;2.93;1.87;;;23.80;49.20;;;;;;5033531;28;20418;-82
2021/05/21 11:25:15;;;;;;;2.80;2.03;;;23.80;49.40;;;;;;5033801;28;20830;-81
2021/05/21 11:27:54;;;;;;;2.10;1.80;;;23.80;49.40;;;;;;5033933;28;20479;-81
2021/05/21 11:30:24;;;;;;;2.73;2.20;;;23.80;49.80;;;;;;5033697;28;20446;-82
2021/05/21 11:33:19;;;;;;;2.17;1.97;;;23.80;49.30;;;;;;5033298;28;20453;-82
2021/05/21 11:36:10;;;;;;;2.93;2.63;;;23.80;49.40;;;;;;5033169;28;20788;-83
2021/05/21 11:38:37;;;;;;;3.80;2.70;;;23.70;49.20;;;;;;5050905;28;20464;-83
2021/05/21 11:41:06;;;;;;;2.93;2.40;;;23.70;49.40;;;;;;5051493;28;20458;-82
2021/05/21 11:43:51;;;;;;;2.83;2.63;;;23.70;49.50;;;;;;5032895;28;20426;-82
2021/05/21 11:53:12;;;;;;;3.37;2.87;;;23.60;49.40;;;;;;5028653;28;20422;-82
2021/05/21 11:55:50;;;;;;;6.33;2.80;;;23.60;49.80;;;;;;5011763;28;20411;-81
2021/05/21 11:58:33;;;;;;;2.83;2.63;;;23.60;49.50;;;;;;5012906;28;20418;-82
2021/05/21 12:01:01;;;;;;;3.17;2.90;;;23.60;49.50;;;;;;5011238;28;20486;-82
2021/05/21 12:03:39;;;;;;;3.87;2.73;;;23.60;49.70;;;;;;5012650;28;20420;-82
2021/05/21 12:06:06;;;;;;;3.27;2.97;;;23.60;49.90;;;;;;5011778;28;20431;-83
2021/05/21 12:08:34;;;;;;;3.83;3.53;;;23.60;49.60;;;;;;4990684;28;20533;-82
2021/05/21 12:11:33;;;;;;;3.53;3.23;;;23.60;49.60;;;;;;5012663;28;20422;-82
2021/05/21 12:14:04;;;;;;;3.50;3.00;;;23.70;49.60;;;;;;5007334;28;20443;-84
2021/05/21 12:16:33;;;;;;;3.80;3.40;;;23.60;49.80;;;;;;5012662;28;20407;-81
2021/05/21 12:19:09;;;;;;;3.57;2.90;;;23.60;49.80;;;;;;5028419;28;20415;-81
2021/05/21 12:22:06;;;;;;;3.30;3.00;;;23.60;49.60;;;;;;5011425;28;20555;-82
2021/05/21 12:24:35;;;;;;;4.33;3.10;;;23.60;49.70;;;;;;4931651;29;20423;-82
2021/05/21 12:27:12;;;;;;;3.60;3.20;;;23.60;50.10;;;;;;4951588;29;20446;-81
2021/05/21 12:30:30;;;;;;;3.67;2.70;;;23.60;49.70;;;;;;4968871;29;20409;-82
2021/05/21 12:32:56;;;;;;;3.27;2.97;;;23.60;49.70;;;;;;4949595;29;20436;-81
2021/05/21 12:35:44;;;;;;;3.47;2.80;;;23.60;50.10;;;;;;4952951;29;20418;-82
2021/05/21 12:38:12;;;;;;;2.93;2.50;;;23.60;49.90;;;;;;4968919;29;20432;-81
2021/05/21 12:44:23;;;;;;;3.77;3.37;;;23.60;49.80;;;;;;4967461;29;20433;-82
2021/05/21 12:46:55;;;;;;;3.40;3.10;;;23.60;49.90;;;;;;4952341;29;20429;-83
2021/05/21 12:49:27;;;;;;;3.53;3.23;;;23.50;50.00;;;;;;4953638;29;20459;-84
2021/05/21 12:52:06;;;;;;;3.40;3.10;;;23.50;50.00;;;;;;4955552;29;20418;-83
2021/05/21 12:54:37;;;;;;;4.50;3.50;;;23.50;50.00;;;;;;4956158;29;20430;-84
2021/05/21 12:57:26;;;;;;;3.50;3.20;;;23.50;50.00;;;;;;4972889;29;20429;-83
2021/05/21 13:00:00;;;;;;;3.93;3.07;;;23.50;49.80;;;;;;4956602;29;20460;-84
2021/05/21 13:02:30;;;;;;;3.40;3.10;;;23.50;50.00;;;;;;5046510;28;20488;-84
2021/05/21 13:05:45;;;;;;;3.30;3.00;;;23.50;50.00;;;;;;5051589;28;20401;-84
2021/05/21 13:08:11;;;;;;;3.70;3.00;;;23.60;50.10;;;;;;5021470;28;20528;-84
2021/05/21 13:10:45;;;;;;;3.53;3.23;;;23.50;50.30;;;;;;5033926;28;20426;-83
2021/05/21 13:13:14;;;;;;;4.20;3.30;;;23.50;49.90;;;;;;5033259;28;20183;-85
2021/05/21 13:15:41;;;;;;;3.20;2.90;;;23.50;50.00;;;;;;5034262;28;20450;-84
2021/05/21 13:18:09;;;;;;;2.80;2.57;;;23.50;50.30;;;;;;5036716;28;20460;-84
2021/05/21 13:20:50;;;;;;;3.40;3.10;;;23.50;50.30;;;;;;5037491;28;20462;-85
2021/05/21 13:23:20;;;;;;;3.43;3.07;;;23.50;49.90;;;;;;5057156;28;20425;-83
2021/05/21 13:25:54;;;;;;;3.93;3.40;;;23.50;50.40;;;;;;5038803;28;20429;-82
2021/05/21 13:28:20;;;;;;;3.70;3.33;;;23.50;50.00;;;;;;5056506;28;20418;-83
2021/05/21 13:30:50;;;;;;;5.27;3.30;;;23.50;50.50;;;;;;5071855;28;20446;-81
2021/05/21 13:33:20;;;;;;;3.73;2.50;;;23.50;50.50;;;;;;5056233;28;20414;-81
2021/05/21 13:35:49;;;;;;;2.87;2.67;;;23.50;50.60;;;;;;5063256;28;20832;-81
2021/05/21 13:38:16;;;;;;;3.60;2.70;;;23.40;50.30;;;;;;5055428;28;20505;-80
2021/05/21 13:40:41;;;;;;;3.30;3.00;;;23.30;50.10;;;;;;5055738;28;20476;-82
2021/05/21 13:43:10;;;;;;;3.53;2.60;;;23.50;50.50;;;;;;5037472;28;20495;-80
2021/05/21 13:45:39;;;;;;;4.20;2.70;;;23.50;50.30;;;;;;5054651;28;20172;-84
2021/05/21 13:48:13;;;;;;;4.63;2.73;;;23.50;50.30;;;;;;5037997;28;20426;-85
2021/05/21 13:50:45;;;;;;;4.60;3.50;;;23.50;50.20;;;;;;5036795;28;20426;-84
2021/05/21 13:53:17;;;;;;;2.70;2.00;;;23.40;50.10;;;;;;5036627;28;20417;-85
2021/05/21 13:55:43;;;;;;;5.13;2.20;;;23.40;49.50;;;;;;5036314;28;20415;-84
2021/05/21 13:58:09;;;;;;;4.13;2.70;;;23.40;49.90;;;;;;5037622;28;20444;-85
2021/05/21 14:00:38;;;;;;;2.83;2.50;;;23.40;49.80;;;;;;5037529;28;20257;-84
2021/05/21 14:03:06;;;;;;;3.33;2.13;;;23.40;49.90;;;;;;5036652;28;20410;-85
2021/05/21 14:06:26;;;;;;;4.83;2.20;;;23.40;49.90;;;;;;5033604;28;20418;-83
2021/05/21 14:33:47;;;;;;;;;;;;;;;;;;;;;
2021/05/21 15:39:11;;;;;;;;;;;;;;;;;;;;;
2021/05/21 15:58:39;;;;;;;4.70;2.50;;;23.10;50.60;;;;;;4932727;29;20444;-90
2021/05/21 16:01:21;;;;;;;;;;;;;;;;;;;;;
2021/05/21 16:04:18;;;;;;;6.27;2.67;;;23.10;50.70;;;;;;4931140;29;20444;-85
2021/05/21 16:07:11;;;;;;;;;;;;;;;;;;;;;
2021/05/21 16:10:28;;;;;;;;;;;;;;;;;;;;;
2021/05/21 16:23:03;;;;;;;6.37;2.90;;;23.10;50.70;;;;;;4932709;29;20492;-85
2021/05/21 16:29:22;;;;;;;6.07;3.00;;;23.10;50.70;;;;;;4893807;29;21001;-83
2021/05/21 16:32:00;;;;;;;7.10;3.10;;;23.10;50.70;;;;;;4894291;29;20410;-83
2021/05/21 16:34:38;;;;;;;6.00;2.70;;;23.10;50.70;;;;;;4893840;29;20401;-86
2021/05/21 16:37:51;;;;;;;5.10;2.43;;;23.10;50.70;;;;;;4894215;29;20428;-85
2021/05/21 16:41:17;;;;;;;6.43;2.80;;;23.10;50.70;;;;;;4894567;29;20461;-86
2021/05/21 16:44:01;;;;;;;4.10;2.83;;;23.10;50.70;;;;;;4812416;29;20425;-84
2021/05/21 16:50:48;;;;;;;5.43;2.73;;;23.10;50.80;;;;;;4876321;29;20499;-86
2021/05/21 16:56:48;;;;;;;3.13;2.47;;;23.10;50.80;;;;;;4886151;29;20448;-85
2021/05/21 16:59:30;;;;;;;4.37;2.27;;;23.00;50.80;;;;;;4902803;29;20431;-86
2021/05/21 17:09:24;;;;;;;;;;;;;;;;;;;;;
2021/05/21 17:45:37;;;;;;;3.37;2.07;;;22.90;50.50;;;;;;4971435;29;20410;-86
2021/05/21 17:51:12;;;;;;;2.30;1.80;;;22.90;50.60;;;;;;4972304;29;20383;-84
2021/05/21 17:59:30;;;;;;;3.90;1.70;;;22.90;50.70;;;;;;5016644;28;20428;-85
2021/05/21 18:16:34;;;;;;;4.53;1.50;;;22.80;50.70;;;;;;5053472;28;20465;-84
2021/05/21 22:49:53;;;;;;;;;;;;;;;;;;;;;
2021/05/21 22:53:37;;;;;;;;;;;;;;;;;;;;;
